createdAt,value
2022-08-23T00:01:43.839Z,1.98
2022-08-23T00:04:20.078Z,1.67
2022-08-23T00:06:49.919Z,1.45
2022-08-23T00:09:20.189Z,1.70
2022-08-23T00:11:52.918Z,1.23
2022-08-23T00:14:30.160Z,1.65
2022-08-23T00:17:01.010Z,1.00
2022-08-23T00:19:28.809Z,1.45
2022-08-23T00:21:56.863Z,0.85
2022-08-23T00:24:26.064Z,1.33
2022-08-23T00:27:10.361Z,1.08
2022-08-23T00:29:44.549Z,1.55
2022-08-23T00:32:18.269Z,0.95
2022-08-23T00:34:45.799Z,1.35
2022-08-23T00:37:14.573Z,1.83
2022-08-23T00:39:42.669Z,1.60
2022-08-23T00:42:52.064Z,1.88
2022-08-23T00:45:46.514Z,1.90
2022-08-23T00:48:14.557Z,2.05
2022-08-23T00:51:19.085Z,1.60
2022-08-23T00:53:55.975Z,1.45
2022-08-23T00:56:27.873Z,1.10
2022-08-23T00:58:58.448Z,1.90
2022-08-23T01:01:26.955Z,1.55
2022-08-23T01:04:04.358Z,1.50
2022-08-23T01:06:44.134Z,1.40
2022-08-23T01:09:21.229Z,1.95
2022-08-23T01:11:59.380Z,1.63
2022-08-23T01:14:38.590Z,1.45
2022-08-23T01:17:21.346Z,1.85
2022-08-23T01:20:07.326Z,1.70
2022-08-23T01:22:58.991Z,1.77
2022-08-23T01:25:30.492Z,5.55
2022-08-23T01:27:59.426Z,7.55
2022-08-23T01:30:32.666Z,2.00
2022-08-23T01:33:06.667Z,1.98
2022-08-23T01:35:53.504Z,3.38
2022-08-23T01:38:22.567Z,1.70
2022-08-23T01:40:51.488Z,2.15
2022-08-23T01:43:21.759Z,2.78
2022-08-23T01:45:53.474Z,2.05
2022-08-23T01:48:24.347Z,1.75
2022-08-23T01:50:52.182Z,2.35
2022-08-23T01:53:20.152Z,3.03
2022-08-23T01:55:50.582Z,2.35
2022-08-23T01:58:21.460Z,2.70
2022-08-23T02:00:49.397Z,2.55
2022-08-23T02:03:17.161Z,2.33
2022-08-23T02:05:45.836Z,2.50
2022-08-23T02:08:32.833Z,2.83
2022-08-23T02:13:41.587Z,2.72
2022-08-23T02:16:14.882Z,2.42
2022-08-23T02:18:43.435Z,2.58
2022-08-23T02:21:11.624Z,2.72
2022-08-23T02:23:39.812Z,2.92
2022-08-23T02:26:07.353Z,3.35
2022-08-23T02:28:34.948Z,3.45
2022-08-23T02:31:02.950Z,3.45
2022-08-23T02:33:31.567Z,2.95
2022-08-23T02:35:59.422Z,3.45
2022-08-23T02:38:27.213Z,3.28
2022-08-23T02:41:00.663Z,3.88
2022-08-23T02:43:30.306Z,3.42
2022-08-23T02:45:57.807Z,3.42
2022-08-23T02:48:25.867Z,2.90
2022-08-23T02:51:06.322Z,3.80
2022-08-23T02:53:34.944Z,3.60
2022-08-23T02:56:07.073Z,3.60
2022-08-23T02:58:54.450Z,3.90
2022-08-23T03:01:32.469Z,3.50
2022-08-23T03:04:11.178Z,3.70
2022-08-23T03:06:39.831Z,3.47
2022-08-23T03:09:08.993Z,3.83
2022-08-23T03:14:04.926Z,3.15
2022-08-23T03:16:33.058Z,2.85
2022-08-23T03:19:02.352Z,3.35
2022-08-23T03:21:31.265Z,3.58
2022-08-23T03:24:00.822Z,3.17
2022-08-23T03:26:31.414Z,3.08
2022-08-23T03:28:59.392Z,3.40
2022-08-23T03:31:31.367Z,2.95
2022-08-23T03:34:07.899Z,2.95
2022-08-23T03:36:35.879Z,3.22
2022-08-23T03:39:06.149Z,3.00
2022-08-23T03:41:34.181Z,3.47
2022-08-23T03:44:01.960Z,2.97
2022-08-23T03:46:34.205Z,3.17
2022-08-23T03:49:04.301Z,3.45
2022-08-23T03:52:00.357Z,3.95
2022-08-23T03:54:32.530Z,3.53
2022-08-23T03:57:05.050Z,3.50
2022-08-23T03:59:38.187Z,4.35
2022-08-23T04:02:09.695Z,3.53
2022-08-23T04:04:37.923Z,3.20
2022-08-23T04:07:28.713Z,3.63
2022-08-23T04:09:58.907Z,3.03
2022-08-23T04:12:31.754Z,4.03
2022-08-23T04:14:59.913Z,3.90
2022-08-23T04:17:32.150Z,4.75
2022-08-23T04:20:01.267Z,3.75
2022-08-23T04:22:29.757Z,3.70
2022-08-23T04:24:57.713Z,3.90
2022-08-23T04:27:25.706Z,3.87
2022-08-23T04:29:53.930Z,3.83
2022-08-23T04:32:26.611Z,3.42
2022-08-23T04:34:58.509Z,4.00
2022-08-23T04:37:26.199Z,4.07
2022-08-23T04:40:12.452Z,3.92
2022-08-23T04:42:43.412Z,4.55
2022-08-23T04:45:12.435Z,4.03
2022-08-23T04:47:44.903Z,4.28
2022-08-23T04:50:12.690Z,3.37
2022-08-23T04:52:59.294Z,4.03
2022-08-23T04:55:29.135Z,4.47
2022-08-23T04:58:07.554Z,3.40
2022-08-23T05:00:44.636Z,3.58
2022-08-23T05:03:14.348Z,3.15
2022-08-23T05:05:42.594Z,3.80
2022-08-23T05:08:10.826Z,4.03
2022-08-23T05:10:38.882Z,5.07
2022-08-23T05:13:06.402Z,4.45
2022-08-23T05:15:33.825Z,4.55
2022-08-23T05:18:06.586Z,5.38
2022-08-23T05:20:36.734Z,4.90
2022-08-23T05:23:04.310Z,4.65
2022-08-23T05:25:53.153Z,4.50
2022-08-23T05:28:49.606Z,3.97
2022-08-23T05:31:24.196Z,4.05
2022-08-23T05:33:59.097Z,4.55
2022-08-23T05:36:55.361Z,5.05
2022-08-23T05:39:36.222Z,4.63
2022-08-23T05:42:12.776Z,4.80
2022-08-23T05:44:41.796Z,4.82
2022-08-23T05:47:15.847Z,4.53
2022-08-23T05:50:16.031Z,4.90
2022-08-23T05:52:45.867Z,5.20
2022-08-23T05:55:16.928Z,4.82
2022-08-23T05:57:55.311Z,5.43
2022-08-23T06:00:23.249Z,4.85
2022-08-23T06:03:05.187Z,5.15
2022-08-23T06:05:32.730Z,5.10
2022-08-23T06:08:01.723Z,5.25
2022-08-23T06:10:29.729Z,5.00
2022-08-23T06:13:04.487Z,6.45
2022-08-23T06:15:32.741Z,5.55
2022-08-23T06:18:00.382Z,5.10
2022-08-23T06:20:28.216Z,5.40
2022-08-23T06:23:01.945Z,5.60
2022-08-23T06:25:29.993Z,4.93
2022-08-23T06:28:08.125Z,4.80
2022-08-23T06:30:40.070Z,4.97
2022-08-23T06:33:21.730Z,5.32
2022-08-23T06:36:18.560Z,5.97
2022-08-23T06:39:28.743Z,5.85
2022-08-23T06:42:37.481Z,4.85
2022-08-23T06:45:06.544Z,5.18
2022-08-23T06:47:43.605Z,4.78
2022-08-23T06:50:11.751Z,5.35
2022-08-23T06:52:58.309Z,5.30
2022-08-23T06:55:44.715Z,5.68
2022-08-23T06:58:22.399Z,4.85
2022-08-23T07:01:50.176Z,5.57
2022-08-23T07:04:31.833Z,5.95
2022-08-23T07:10:08.044Z,6.07
2022-08-23T07:12:42.639Z,5.78
2022-08-23T07:15:12.689Z,6.80
2022-08-23T07:17:43.628Z,6.07
2022-08-23T07:20:11.161Z,5.88
2022-08-23T07:22:41.333Z,6.63
2022-08-23T07:25:10.822Z,6.72
2022-08-23T07:27:40.312Z,5.40
2022-08-23T07:30:09.901Z,6.82
2022-08-23T07:32:40.676Z,6.57
2022-08-23T07:35:32.439Z,6.28
2022-08-23T07:38:02.899Z,7.25
2022-08-23T07:40:38.771Z,6.85
2022-08-23T07:43:09.025Z,7.35
2022-08-23T07:45:40.629Z,6.78
2022-08-23T07:48:12.189Z,6.03
2022-08-23T07:51:07.347Z,7.35
2022-08-23T07:53:37.736Z,6.03
2022-08-23T07:56:11.416Z,7.07
2022-08-23T07:59:03.822Z,8.43
2022-08-23T08:01:38.386Z,8.02
2022-08-23T08:04:08.257Z,7.25
2022-08-23T08:07:04.935Z,9.95
2022-08-23T08:09:40.183Z,9.02
2022-08-23T08:12:08.970Z,8.57
2022-08-23T08:14:38.123Z,9.10
2022-08-23T08:17:06.948Z,8.70
2022-08-23T08:19:57.326Z,9.23
2022-08-23T08:22:47.574Z,9.80
2022-08-23T08:25:35.051Z,9.63
2022-08-23T08:28:06.283Z,9.57
2022-08-23T08:30:34.085Z,9.77
2022-08-23T08:33:03.975Z,9.43
2022-08-23T08:35:33.485Z,8.43
2022-08-23T08:38:03.762Z,11.60
2022-08-23T08:40:37.578Z,10.70
2022-08-23T08:43:34.283Z,8.75
2022-08-23T08:46:27.996Z,9.85
2022-08-23T08:49:01.528Z,10.80
2022-08-23T08:52:10.785Z,11.30
2022-08-23T08:54:44.906Z,11.75
2022-08-23T08:57:25.488Z,11.73
2022-08-23T09:00:02.813Z,12.60
2022-08-23T09:02:35.294Z,12.88
2022-08-23T09:05:27.039Z,12.52
2022-08-23T09:08:19.378Z,11.82
2022-08-23T09:11:22.669Z,10.45
2022-08-23T09:13:53.744Z,10.30
2022-08-23T09:16:31.880Z,10.32
2022-08-23T09:19:02.664Z,11.55
2022-08-23T09:21:50.750Z,9.82
2022-08-23T09:24:18.623Z,9.57
2022-08-23T09:26:58.867Z,8.90
2022-08-23T09:29:35.451Z,9.65
2022-08-23T09:32:30.973Z,9.52
2022-08-23T09:35:23.051Z,10.57
2022-08-23T09:38:15.387Z,10.25
2022-08-23T09:40:51.217Z,10.07
2022-08-23T09:43:26.211Z,10.40
2022-08-23T09:45:59.561Z,10.70
2022-08-23T09:48:46.870Z,11.00
2022-08-23T09:51:41.584Z,9.38
2022-08-23T09:54:33.952Z,9.95
2022-08-23T09:57:10.325Z,8.98
2022-08-23T09:59:51.725Z,8.70
2022-08-23T10:02:31.628Z,9.77
2022-08-23T10:05:37.837Z,8.13
2022-08-23T10:08:10.653Z,8.95
2022-08-23T10:10:51.824Z,8.00
2022-08-23T10:13:27.891Z,8.52
2022-08-23T10:16:04.747Z,7.15
2022-08-23T10:19:03.368Z,7.35
2022-08-23T10:21:51.458Z,8.23
2022-08-23T10:24:46.083Z,7.28
2022-08-23T10:28:03.807Z,8.15
2022-08-23T10:30:54.636Z,8.25
2022-08-23T10:33:55.167Z,8.10
2022-08-23T10:36:56.770Z,8.20
2022-08-23T10:39:30.270Z,8.18
2022-08-23T10:42:17.011Z,8.13
2022-08-23T10:45:15.235Z,8.50
2022-08-23T10:47:54.321Z,9.57
2022-08-23T10:50:22.932Z,7.97
2022-08-23T10:53:13.760Z,8.45
2022-08-23T10:56:02.917Z,8.00
2022-08-23T10:59:08.341Z,7.65
2022-08-23T11:01:46.622Z,9.20
2022-08-23T11:07:43.133Z,8.55
2022-08-23T11:10:39.331Z,8.70
2022-08-23T11:13:15.120Z,7.45
2022-08-23T11:15:58.676Z,10.07
2022-08-23T11:18:47.678Z,8.32
2022-08-23T11:21:30.768Z,8.82
2022-08-23T11:24:03.207Z,9.20
2022-08-23T11:26:41.327Z,10.25
2022-08-23T11:29:22.221Z,10.43
2022-08-23T11:32:33.443Z,11.05
2022-08-23T11:35:50.462Z,10.88
2022-08-23T11:38:47.509Z,8.18
2022-08-23T11:41:19.393Z,8.90
2022-08-23T11:43:56.579Z,9.20
2022-08-23T11:46:27.582Z,9.82
2022-08-23T11:49:29.499Z,11.93
2022-08-23T11:52:36.979Z,9.32
2022-08-23T11:55:53.241Z,8.02
2022-08-23T11:58:34.763Z,9.55
2022-08-23T12:01:10.879Z,11.13
2022-08-23T12:03:59.191Z,9.32
2022-08-23T12:06:51.494Z,9.80
2022-08-23T12:09:20.526Z,9.25
2022-08-23T12:11:56.624Z,9.30
2022-08-23T12:14:40.214Z,7.97
2022-08-23T12:17:16.914Z,7.28
2022-08-23T12:20:13.161Z,8.55
2022-08-23T12:23:15.451Z,8.10
2022-08-23T12:25:43.946Z,6.90
2022-08-23T12:28:33.302Z,7.35
2022-08-23T12:31:14.492Z,7.13
2022-08-23T12:34:32.791Z,6.97
2022-08-23T12:37:09.563Z,7.38
2022-08-23T12:39:59.663Z,6.95
2022-08-23T12:42:36.031Z,7.38
2022-08-23T12:45:20.320Z,6.93
2022-08-23T12:48:02.563Z,7.25
2022-08-23T12:51:00.445Z,7.80
2022-08-23T12:53:31.738Z,6.97
2022-08-23T12:56:11.498Z,7.57
2022-08-23T12:58:45.652Z,5.85
2022-08-23T13:01:30.166Z,6.30
2022-08-23T13:04:19.559Z,6.03
2022-08-23T13:06:55.171Z,6.43
2022-08-23T13:09:34.191Z,8.18
2022-08-23T13:12:02.548Z,7.75
2022-08-23T13:14:41.191Z,6.93
2022-08-23T13:17:26.527Z,7.85
2022-08-23T13:20:04.275Z,8.57
2022-08-23T13:22:33.702Z,7.30
2022-08-23T13:25:29.130Z,7.05
2022-08-23T13:28:06.529Z,7.55
2022-08-23T13:30:38.003Z,6.88
2022-08-23T13:33:08.426Z,6.97
2022-08-23T13:35:44.514Z,6.15
2022-08-23T13:38:22.051Z,7.70
2022-08-23T13:41:14.091Z,8.52
2022-08-23T13:43:44.554Z,8.40
2022-08-23T13:46:26.549Z,8.32
2022-08-23T13:49:28.593Z,8.60
2022-08-23T13:52:37.876Z,7.07
2022-08-23T13:54:53.071Z,8.23
2022-08-23T13:57:22.288Z,6.90
2022-08-23T13:59:54.504Z,7.18
2022-08-23T14:02:24.310Z,7.82
2022-08-23T14:04:52.249Z,6.95
2022-08-23T14:07:20.155Z,7.45
2022-08-23T14:09:50.979Z,7.20
2022-08-23T14:12:31.869Z,7.85
2022-08-23T14:15:03.078Z,6.80
2022-08-23T14:17:38.649Z,7.13
2022-08-23T14:22:56.151Z,6.55
2022-08-23T14:25:24.068Z,7.05
2022-08-23T14:27:51.711Z,6.63
2022-08-23T14:30:29.430Z,5.97
2022-08-23T14:32:59.777Z,7.00
2022-08-23T14:35:27.670Z,6.32
2022-08-23T14:38:03.303Z,6.68
2022-08-23T14:40:31.894Z,6.68
2022-08-23T14:42:59.465Z,5.88
2022-08-23T14:45:27.445Z,6.35
2022-08-23T14:47:55.211Z,6.87
2022-08-23T14:50:22.853Z,9.45
2022-08-23T14:52:50.354Z,8.52
2022-08-23T14:55:20.212Z,7.55
2022-08-23T14:57:51.745Z,6.70
2022-08-23T15:00:19.675Z,7.35
2022-08-23T15:02:48.829Z,7.68
2022-08-23T15:05:16.877Z,8.75
2022-08-23T15:07:45.261Z,8.90
2022-08-23T15:13:20.002Z,8.50
2022-08-23T15:15:52.997Z,9.13
2022-08-23T15:18:20.893Z,7.38
2022-08-23T15:20:52.298Z,8.90
2022-08-23T15:23:21.164Z,8.20
2022-08-23T15:25:49.968Z,9.68
2022-08-23T15:28:22.044Z,8.30
2022-08-23T15:30:51.522Z,8.63
2022-08-23T15:33:24.720Z,8.43
2022-08-23T15:35:55.961Z,8.30
2022-08-23T15:38:25.917Z,8.73
2022-08-23T15:40:56.931Z,8.77
2022-08-23T15:43:25.788Z,8.55
2022-08-23T15:46:10.326Z,8.48
2022-08-23T15:48:54.774Z,8.93
2022-08-23T15:51:23.868Z,8.43
2022-08-23T15:53:52.163Z,7.20
2022-08-23T15:56:28.054Z,8.27
2022-08-23T15:58:56.267Z,8.02
2022-08-23T16:01:25.638Z,7.97
2022-08-23T16:03:53.839Z,8.52
2022-08-23T16:06:21.987Z,7.55
2022-08-23T16:08:52.826Z,8.48
2022-08-23T16:11:21.227Z,7.68
2022-08-23T16:13:49.777Z,8.65
2022-08-23T16:16:31.011Z,8.73
2022-08-23T16:19:00.256Z,8.48
2022-08-23T16:21:30.210Z,8.30
2022-08-23T16:23:58.920Z,9.55
2022-08-23T16:26:35.289Z,9.35
2022-08-23T16:29:08.590Z,8.57
2022-08-23T16:31:39.207Z,8.10
2022-08-23T16:34:12.533Z,6.97
2022-08-23T16:36:44.970Z,6.40
2022-08-23T16:39:15.500Z,6.32
2022-08-23T16:41:43.577Z,6.43
2022-08-23T16:44:11.089Z,6.22
2022-08-23T16:46:42.839Z,7.32
2022-08-23T16:49:13.644Z,7.00
2022-08-23T16:51:42.898Z,5.63
2022-08-23T16:56:40.676Z,5.55
2022-08-23T17:02:10.655Z,4.95
2022-08-23T17:04:39.114Z,5.82
2022-08-23T17:07:07.490Z,6.32
2022-08-23T17:09:34.968Z,6.50
2022-08-23T17:12:03.943Z,5.82
2022-08-23T17:14:31.481Z,5.43
2022-08-23T17:17:00.106Z,5.88
2022-08-23T17:19:27.907Z,5.72
2022-08-23T17:21:59.298Z,5.65
2022-08-23T17:24:26.855Z,6.28
2022-08-23T17:26:54.763Z,5.15
2022-08-23T17:29:22.381Z,5.95
2022-08-23T17:31:50.144Z,5.55
2022-08-23T17:34:17.931Z,7.47
2022-08-23T17:36:50.878Z,5.88
2022-08-23T17:39:24.783Z,6.35
2022-08-23T17:41:52.340Z,5.50
2022-08-23T17:44:20.511Z,6.57
2022-08-23T17:46:49.214Z,6.07
2022-08-23T17:49:18.246Z,5.53
2022-08-23T17:51:46.445Z,6.05
2022-08-23T17:54:16.130Z,6.85
2022-08-23T17:56:48.497Z,6.60
2022-08-23T17:59:21.946Z,6.65
2022-08-23T18:01:49.573Z,6.82
2022-08-23T18:04:17.223Z,6.13
2022-08-23T18:06:45.832Z,6.10
2022-08-23T18:09:13.880Z,7.17
2022-08-23T18:11:41.997Z,6.47
2022-08-23T18:14:10.783Z,6.67
2022-08-23T18:16:38.843Z,7.00
2022-08-23T18:19:10.816Z,8.93
2022-08-23T18:21:42.750Z,9.88
2022-08-23T18:24:10.937Z,8.93
2022-08-23T18:26:57.858Z,10.13
2022-08-23T18:29:26.103Z,9.70
2022-08-23T18:31:54.564Z,10.23
2022-08-23T18:34:22.264Z,10.40
2022-08-23T18:36:50.115Z,9.93
2022-08-23T18:39:17.847Z,10.50
2022-08-23T18:42:05.377Z,9.50
2022-08-23T18:44:33.317Z,9.95
2022-08-23T18:47:05.041Z,9.98
2022-08-23T18:49:35.678Z,10.40
2022-08-23T18:52:04.225Z,10.75
2022-08-23T18:54:34.141Z,10.27
2022-08-23T18:57:02.450Z,10.80
2022-08-23T18:59:31.021Z,9.95
2022-08-23T19:01:58.704Z,9.60
2022-08-23T19:04:27.544Z,10.48
2022-08-23T19:06:55.421Z,10.45
2022-08-23T19:09:23.019Z,10.43
2022-08-23T19:11:50.692Z,11.43
2022-08-23T19:14:19.421Z,10.70
2022-08-23T19:16:48.480Z,13.25
2022-08-23T19:19:18.866Z,10.40
2022-08-23T19:21:46.983Z,11.68
2022-08-23T19:24:14.827Z,10.15
2022-08-23T19:26:47.344Z,9.70
2022-08-23T19:29:18.449Z,10.93
2022-08-23T19:31:48.179Z,11.18
2022-08-23T19:34:19.398Z,10.13
2022-08-23T19:36:54.644Z,10.98
2022-08-23T19:39:29.951Z,11.07
2022-08-23T19:41:58.062Z,10.93
2022-08-23T19:44:26.639Z,10.57
2022-08-23T19:46:56.078Z,11.32
2022-08-23T19:49:24.518Z,11.70
2022-08-23T19:51:52.747Z,11.75
2022-08-23T19:54:20.602Z,10.70
2022-08-23T19:56:59.491Z,12.10
2022-08-23T19:59:35.018Z,10.38
2022-08-23T20:02:03.572Z,9.73
2022-08-23T20:04:33.335Z,10.10
2022-08-23T20:07:03.307Z,8.70
2022-08-23T20:09:34.441Z,8.95
2022-08-23T20:12:03.334Z,8.00
2022-08-23T20:14:33.296Z,8.85
2022-08-23T20:17:03.468Z,8.82
2022-08-23T20:19:31.588Z,8.27
2022-08-23T20:22:17.877Z,7.97
2022-08-23T20:24:51.947Z,8.57
2022-08-23T20:27:25.401Z,8.82
2022-08-23T20:30:01.405Z,7.93
2022-08-23T20:32:32.000Z,8.98
2022-08-23T20:35:03.050Z,9.50
2022-08-23T20:37:31.715Z,8.82
2022-08-23T20:40:00.376Z,8.45
2022-08-23T20:42:31.546Z,8.88
2022-08-23T20:45:00.317Z,9.55
2022-08-23T20:47:28.899Z,8.50
2022-08-23T20:49:56.693Z,9.55
2022-08-23T20:52:25.174Z,9.50
2022-08-23T20:54:53.526Z,8.88
2022-08-23T20:57:21.557Z,9.52
2022-08-23T20:59:49.388Z,9.50
2022-08-23T21:02:17.015Z,9.20
2022-08-23T21:04:44.834Z,9.32
2022-08-23T21:07:12.450Z,9.57
2022-08-23T21:09:43.608Z,8.98
2022-08-23T21:12:16.766Z,9.00
2022-08-23T21:14:47.827Z,9.45
2022-08-23T21:17:19.859Z,8.88
2022-08-23T21:19:52.506Z,9.02
2022-08-23T21:22:32.199Z,9.35
2022-08-23T21:25:04.365Z,7.40
2022-08-23T21:27:38.285Z,8.52
2022-08-23T21:30:11.229Z,8.75
2022-08-23T21:32:43.487Z,8.60
2022-08-23T21:35:14.388Z,7.68
2022-08-23T21:37:51.264Z,9.32
2022-08-23T21:40:25.065Z,7.85
2022-08-23T21:42:56.637Z,7.47
2022-08-23T21:45:28.634Z,8.13
2022-08-23T21:47:59.581Z,8.15
2022-08-23T21:50:34.502Z,7.70
2022-08-23T21:53:05.503Z,7.20
2022-08-23T21:55:36.883Z,7.25
2022-08-23T21:58:10.048Z,6.57
2022-08-23T22:00:43.105Z,6.85
2022-08-23T22:03:16.109Z,6.28
2022-08-23T22:05:49.843Z,7.47
2022-08-23T22:08:22.147Z,5.90
2022-08-23T22:10:58.343Z,6.82
2022-08-23T22:13:31.125Z,8.02
2022-08-23T22:16:02.035Z,6.90
2022-08-23T22:18:36.062Z,8.05
2022-08-23T22:21:08.205Z,7.32
2022-08-23T22:23:41.975Z,7.50
2022-08-23T22:26:14.184Z,7.32
2022-08-23T22:28:44.868Z,7.10
2022-08-23T22:31:15.310Z,8.05
2022-08-23T22:33:43.626Z,8.40
2022-08-23T22:36:16.614Z,8.03
2022-08-23T22:38:45.665Z,8.48
2022-08-23T22:41:25.777Z,8.60
2022-08-23T22:43:59.385Z,8.48
2022-08-23T22:46:30.266Z,6.60
2022-08-23T22:48:57.901Z,8.23
2022-08-23T22:51:32.801Z,7.82
2022-08-23T22:54:05.323Z,8.05
2022-08-23T22:56:48.106Z,8.00
2022-08-23T22:59:18.486Z,8.60
2022-08-23T23:01:50.700Z,9.63
2022-08-23T23:04:22.405Z,9.35
2022-08-23T23:06:51.168Z,9.82
2022-08-23T23:09:18.682Z,9.15
2022-08-23T23:11:46.854Z,9.02
2022-08-23T23:14:16.447Z,8.93
2022-08-23T23:16:45.540Z,9.50
2022-08-23T23:19:32.081Z,8.88
2022-08-23T23:22:00.062Z,9.85
2022-08-23T23:24:32.045Z,8.43
2022-08-23T23:27:00.951Z,9.93
2022-08-23T23:29:30.748Z,8.50
2022-08-23T23:31:59.042Z,9.95
2022-08-23T23:34:28.006Z,9.00
2022-08-23T23:36:57.815Z,9.30
2022-08-23T23:39:27.354Z,9.60
2022-08-23T23:41:55.610Z,9.55
2022-08-23T23:44:30.910Z,9.02
2022-08-23T23:47:01.538Z,9.73
2022-08-23T23:49:32.034Z,9.80
2022-08-23T23:52:05.668Z,10.20
2022-08-23T23:54:35.702Z,10.75
2022-08-23T23:57:05.708Z,9.60
2022-08-23T23:59:34.198Z,9.70
